Time;durP1;ratioP1;P1;durP2;ratioP2;P2;SDS_P1;SDS_P2;PMS_P1;PMS_P2;Temp;Humidity;BMP_temperature;BMP_pressure;BME280_temperature;BME280_humidity;BME280_pressure;Samples;Min_cycle;Max_cycle;Signal;HPM_P1;HPM_P2
2022/05/27 00:00:18;;;;;;;2.53;2.03;;;16.40;99.90;;;;;;5093108;28;20485;-57
2022/05/27 00:02:46;;;;;;;2.30;2.10;;;16.40;99.90;;;;;;5092854;28;20451;-57
2022/05/27 00:05:13;;;;;;;2.30;1.93;;;16.40;99.90;;;;;;5093101;28;20844;-57
2022/05/27 00:07:40;;;;;;;2.40;2.20;;;16.40;99.90;;;;;;5092836;28;20451;-57
2022/05/27 00:10:09;;;;;;;3.03;2.33;;;16.40;99.90;;;;;;5092642;28;20992;-57
2022/05/27 00:12:38;;;;;;;8.47;2.57;;;16.40;99.90;;;;;;5093081;28;20443;-57
2022/05/27 00:15:07;;;;;;;3.10;2.00;;;16.40;99.90;;;;;;5093140;28;20803;-57
2022/05/27 00:17:34;;;;;;;2.23;2.03;;;16.40;99.90;;;;;;5092793;28;21055;-57
2022/05/27 00:20:01;;;;;;;1.93;1.83;;;16.30;99.90;;;;;;5092509;28;20922;-57
2022/05/27 00:22:28;;;;;;;2.90;2.27;;;16.30;99.90;;;;;;5095628;28;20458;-57
2022/05/27 00:24:56;;;;;;;2.57;2.37;;;16.30;99.90;;;;;;5096362;28;20599;-57
2022/05/27 00:27:23;;;;;;;3.13;2.23;;;16.30;99.90;;;;;;5096569;28;20440;-57
2022/05/27 00:29:51;;;;;;;5.13;2.07;;;16.30;99.90;;;;;;5096011;28;20818;-57
2022/05/27 00:32:18;;;;;;;2.07;1.87;;;16.20;99.90;;;;;;5096387;28;20448;-57
2022/05/27 00:34:45;;;;;;;2.20;1.97;;;16.10;99.90;;;;;;5096378;28;20481;-57
2022/05/27 00:37:14;;;;;;;2.10;1.90;;;16.00;99.90;;;;;;5096017;28;20824;-57
2022/05/27 00:39:41;;;;;;;2.63;2.43;;;16.00;99.90;;;;;;5096234;28;20502;-57
2022/05/27 00:42:09;;;;;;;2.10;1.90;;;16.00;99.90;;;;;;5096231;28;20443;-57
2022/05/27 00:44:37;;;;;;;3.80;1.77;;;15.90;99.90;;;;;;5095528;28;20528;-57
2022/05/27 00:47:09;;;;;;;4.30;2.20;;;15.80;99.90;;;;;;5095748;28;20447;-58
2022/05/27 00:49:45;;;;;;;3.50;2.40;;;15.80;99.90;;;;;;5096072;28;20467;-57
2022/05/27 00:52:14;;;;;;;2.67;2.07;;;15.80;99.90;;;;;;5096124;28;20419;-57
2022/05/27 00:54:42;;;;;;;2.30;2.10;;;15.80;99.90;;;;;;5095846;28;20526;-57
2022/05/27 00:57:13;;;;;;;3.70;2.13;;;15.80;99.90;;;;;;5095881;28;20546;-57
2022/05/27 00:59:45;;;;;;;3.70;2.00;;;15.80;99.90;;;;;;5095552;28;20447;-57
2022/05/27 01:02:14;;;;;;;2.87;2.67;;;15.70;99.90;;;;;;5095937;28;20435;-57
2022/05/27 01:04:41;;;;;;;2.70;2.50;;;15.70;99.90;;;;;;5095645;28;20483;-57
2022/05/27 01:07:08;;;;;;;3.20;2.53;;;15.70;99.90;;;;;;5095575;28;20781;-57
2022/05/27 01:09:38;;;;;;;5.33;2.50;;;15.70;99.90;;;;;;5095599;28;20466;-57
2022/05/27 01:12:17;;;;;;;3.33;2.10;;;15.70;99.90;;;;;;5095641;28;20451;-57
2022/05/27 01:15:01;;;;;;;3.50;2.40;;;15.70;99.90;;;;;;5095312;28;20451;-57
2022/05/27 01:17:45;;;;;;;4.30;2.10;;;15.60;99.90;;;;;;5095550;28;20534;-57
2022/05/27 01:20:22;;;;;;;3.30;2.37;;;15.60;99.90;;;;;;5095276;28;20475;-57
2022/05/27 01:23:28;;;;;;;2.70;2.10;;;15.50;99.90;;;;;;5095133;28;20438;-57
2022/05/27 01:26:33;;;;;;;4.80;2.30;;;15.50;99.90;;;;;;5095341;28;20436;-57
2022/05/27 01:29:23;;;;;;;3.20;2.53;;;15.40;99.90;;;;;;5013030;28;20557;-57
2022/05/27 01:32:01;;;;;;;2.17;2.00;;;15.40;99.90;;;;;;5088020;28;20447;-56
2022/05/27 01:34:34;;;;;;;2.53;2.30;;;15.40;99.90;;;;;;5094883;28;20423;-56
2022/05/27 01:37:07;;;;;;;2.83;2.63;;;15.40;99.90;;;;;;5095252;28;20459;-57
2022/05/27 01:39:41;;;;;;;4.13;2.00;;;15.40;99.90;;;;;;5095048;28;20471;-56
2022/05/27 01:42:15;;;;;;;3.10;2.37;;;15.40;99.90;;;;;;5095087;28;20783;-57
2022/05/27 01:44:47;;;;;;;2.20;2.00;;;15.40;99.90;;;;;;5094728;28;20821;-57
2022/05/27 01:47:22;;;;;;;2.70;2.50;;;15.30;99.90;;;;;;5094947;28;20434;-57
2022/05/27 01:49:55;;;;;;;2.43;2.23;;;15.40;99.90;;;;;;5094925;28;20473;-56
2022/05/27 01:52:27;;;;;;;2.57;2.17;;;15.30;99.90;;;;;;5094866;28;20427;-56
2022/05/27 01:55:00;;;;;;;3.13;2.37;;;15.30;99.90;;;;;;5094611;28;20411;-57
2022/05/27 01:57:31;;;;;;;3.30;2.27;;;15.30;99.90;;;;;;5094821;28;20423;-57
2022/05/27 02:00:05;;;;;;;2.43;2.23;;;15.30;99.90;;;;;;5094458;28;20987;-57
2022/05/27 02:02:37;;;;;;;2.80;2.60;;;15.20;99.90;;;;;;5094756;28;20425;-56
2022/05/27 02:05:09;;;;;;;2.80;2.00;;;15.30;99.90;;;;;;5094232;28;20463;-57
2022/05/27 02:07:40;;;;;;;3.03;2.13;;;15.40;99.90;;;;;;5094718;28;20428;-57
2022/05/27 02:10:24;;;;;;;2.70;2.50;;;15.30;99.90;;;;;;5094146;28;20471;-57
2022/05/27 02:12:57;;;;;;;4.67;2.77;;;15.30;99.90;;;;;;5094378;28;20466;-57
2022/05/27 02:15:29;;;;;;;2.50;2.30;;;15.20;99.90;;;;;;5094568;28;20428;-57
2022/05/27 02:18:05;;;;;;;2.00;1.80;;;15.20;99.90;;;;;;5094556;28;20428;-57
2022/05/27 02:20:37;;;;;;;2.70;2.50;;;15.30;99.90;;;;;;5094103;28;20436;-57
2022/05/27 02:23:10;;;;;;;3.63;2.73;;;15.30;99.90;;;;;;5094289;28;20435;-57
2022/05/27 02:25:42;;;;;;;4.57;2.40;;;15.20;99.90;;;;;;5100028;28;20467;-57
2022/05/27 02:28:14;;;;;;;3.17;2.17;;;15.20;99.90;;;;;;5114495;28;20427;-57
2022/05/27 02:30:45;;;;;;;2.33;2.10;;;15.20;99.90;;;;;;5114211;28;20427;-57
2022/05/27 02:36:06;;;;;;;4.43;2.00;;;15.10;99.90;;;;;;5114221;28;20405;-57
2022/05/27 02:38:34;;;;;;;2.40;2.20;;;15.10;99.90;;;;;;5114420;28;20472;-57
2022/05/27 02:41:09;;;;;;;3.03;2.60;;;15.20;99.90;;;;;;5114017;28;20529;-57
2022/05/27 02:43:50;;;;;;;3.50;2.37;;;15.10;99.90;;;;;;5113635;28;20545;-57
2022/05/27 02:46:26;;;;;;;2.63;2.43;;;15.10;99.90;;;;;;5113879;28;20502;-57
2022/05/27 02:49:03;;;;;;;3.00;2.50;;;15.10;99.90;;;;;;5114120;28;20549;-57
2022/05/27 02:51:37;;;;;;;5.57;2.60;;;15.10;99.90;;;;;;5114024;28;20441;-57
2022/05/27 02:54:11;;;;;;;2.57;2.30;;;15.00;99.90;;;;;;5114076;28;20430;-57
2022/05/27 02:56:44;;;;;;;2.53;2.33;;;15.00;99.90;;;;;;5113716;28;20434;-57
2022/05/27 02:59:14;;;;;;;3.83;2.50;;;14.90;99.90;;;;;;5114059;28;20462;-57
2022/05/27 03:01:42;;;;;;;2.30;2.10;;;14.90;99.90;;;;;;5113772;28;20791;-57
2022/05/27 03:04:10;;;;;;;3.33;3.03;;;14.90;99.90;;;;;;5113997;28;20553;-57
2022/05/27 03:06:50;;;;;;;5.07;2.93;;;15.00;99.90;;;;;;5113655;28;20937;-57
2022/05/27 03:09:21;;;;;;;3.50;2.57;;;15.10;99.90;;;;;;5114061;28;20897;-57
2022/05/27 03:11:54;;;;;;;3.27;2.27;;;15.20;99.90;;;;;;5114076;28;20474;-57
2022/05/27 03:14:51;;;;;;;3.63;2.30;;;15.10;99.90;;;;;;5113625;28;20450;-57
2022/05/27 03:17:30;;;;;;;4.20;2.53;;;15.10;99.90;;;;;;5078013;28;20446;-57
2022/05/27 03:20:21;;;;;;;2.33;2.13;;;15.10;99.90;;;;;;5113588;28;21032;-57
2022/05/27 03:23:08;;;;;;;2.87;2.67;;;15.10;99.90;;;;;;5111210;28;20960;-57
2022/05/27 03:25:42;;;;;;;3.63;2.80;;;15.10;99.90;;;;;;5113372;28;20466;-57
2022/05/27 03:28:15;;;;;;;3.00;2.13;;;15.00;99.90;;;;;;5113493;28;20434;-57
2022/05/27 03:30:52;;;;;;;3.60;2.70;;;15.00;99.90;;;;;;5113599;28;20433;-57
2022/05/27 03:33:25;;;;;;;2.83;2.30;;;15.00;99.90;;;;;;5113840;28;20423;-57
2022/05/27 03:36:00;;;;;;;4.20;2.80;;;15.00;99.90;;;;;;5113560;28;20916;-57
2022/05/27 03:38:32;;;;;;;2.37;2.17;;;15.00;99.90;;;;;;5113722;28;20462;-57
2022/05/27 03:41:05;;;;;;;5.33;2.50;;;15.00;99.90;;;;;;5113653;28;20425;-57
2022/05/27 03:43:36;;;;;;;3.00;2.73;;;15.10;99.90;;;;;;5113518;28;20462;-57
2022/05/27 03:46:05;;;;;;;3.10;2.47;;;15.10;99.90;;;;;;5113098;28;20494;-57
2022/05/27 03:48:34;;;;;;;3.33;2.30;;;15.10;99.90;;;;;;5113505;28;20447;-57
2022/05/27 03:51:12;;;;;;;4.10;2.50;;;15.20;99.90;;;;;;5113286;28;20442;-57
2022/05/27 03:56:23;;;;;;;5.10;2.73;;;15.10;99.90;;;;;;5116080;28;20490;-57
2022/05/27 03:58:50;;;;;;;3.07;2.87;;;15.10;99.90;;;;;;5117488;28;20463;-57
2022/05/27 04:01:23;;;;;;;2.50;2.30;;;15.10;99.90;;;;;;5117415;28;20446;-57
2022/05/27 04:03:50;;;;;;;6.30;2.40;;;15.10;99.90;;;;;;5117353;28;20441;-57
2022/05/27 04:06:19;;;;;;;2.73;2.53;;;15.20;99.90;;;;;;5117331;28;20550;-57
2022/05/27 04:08:46;;;;;;;2.40;2.20;;;15.10;99.90;;;;;;5116927;28;20549;-58
2022/05/27 04:11:13;;;;;;;2.67;2.30;;;15.30;99.90;;;;;;5117206;28;20787;-57
2022/05/27 04:13:40;;;;;;;2.90;2.63;;;15.30;99.90;;;;;;5117041;28;20464;-56
2022/05/27 04:16:08;;;;;;;3.40;2.93;;;15.40;99.90;;;;;;5116813;28;20439;-57
2022/05/27 04:18:38;;;;;;;3.30;2.40;;;15.40;99.90;;;;;;5117102;28;20461;-57
2022/05/27 04:21:05;;;;;;;3.93;2.97;;;15.40;99.90;;;;;;5116971;28;20457;-57
2022/05/27 04:23:34;;;;;;;4.50;3.00;;;15.40;99.90;;;;;;5116866;28;20538;-57
2022/05/27 04:26:01;;;;;;;2.93;2.40;;;15.60;99.90;;;;;;5116368;28;20585;-58
2022/05/27 04:28:28;;;;;;;3.57;2.50;;;15.60;99.90;;;;;;5116579;28;20870;-58
2022/05/27 04:30:56;;;;;;;3.00;2.70;;;15.70;99.90;;;;;;5116385;28;20457;-57
2022/05/27 04:33:23;;;;;;;4.10;2.40;;;15.70;99.90;;;;;;5116840;28;20453;-57
2022/05/27 04:35:50;;;;;;;2.80;2.20;;;15.70;99.90;;;;;;5116673;28;20491;-57
2022/05/27 04:38:17;;;;;;;2.20;2.10;;;15.70;99.90;;;;;;5116705;28;20864;-57
2022/05/27 04:40:46;;;;;;;2.57;2.37;;;15.70;99.90;;;;;;5116578;28;20439;-57
2022/05/27 04:43:13;;;;;;;2.63;2.43;;;15.70;99.90;;;;;;5116529;28;20461;-57
2022/05/27 04:45:40;;;;;;;3.13;2.60;;;15.80;99.90;;;;;;5116091;28;20861;-57
2022/05/27 04:48:08;;;;;;;6.73;2.57;;;15.70;99.90;;;;;;5116496;28;20443;-57
2022/05/27 04:50:35;;;;;;;3.13;2.60;;;15.60;99.90;;;;;;5116130;28;20808;-57
2022/05/27 04:53:03;;;;;;;4.33;2.67;;;15.60;99.90;;;;;;5116073;28;20937;-57
2022/05/27 04:55:32;;;;;;;7.93;2.90;;;15.60;99.90;;;;;;5111034;28;20451;-57
2022/05/27 04:58:01;;;;;;;4.63;2.90;;;15.60;99.90;;;;;;5095826;28;20455;-57
2022/05/27 05:00:31;;;;;;;3.53;2.90;;;15.70;99.90;;;;;;5095526;28;20451;-58
2022/05/27 05:02:59;;;;;;;2.60;2.40;;;15.70;99.90;;;;;;5095504;28;20534;-58
2022/05/27 05:05:28;;;;;;;2.90;2.70;;;15.70;99.90;;;;;;5095422;28;20479;-57
2022/05/27 05:07:59;;;;;;;3.20;2.90;;;15.80;99.90;;;;;;5094707;28;21054;-57
2022/05/27 05:10:26;;;;;;;3.50;2.70;;;15.80;99.90;;;;;;5095360;28;20432;-58
2022/05/27 05:12:54;;;;;;;3.10;2.80;;;15.90;99.90;;;;;;5095534;28;20534;-58
2022/05/27 05:15:25;;;;;;;3.50;2.97;;;15.90;99.90;;;;;;5095522;28;20511;-58
2022/05/27 05:17:53;;;;;;;3.43;2.63;;;16.00;99.90;;;;;;5095699;28;20427;-57
2022/05/27 05:20:22;;;;;;;3.40;3.10;;;16.00;99.90;;;;;;5095099;28;20977;-58
2022/05/27 05:22:50;;;;;;;4.30;3.23;;;15.90;99.90;;;;;;5095113;28;20492;-58
2022/05/27 05:25:17;;;;;;;5.23;2.53;;;15.90;99.90;;;;;;5095001;28;20532;-57
2022/05/27 05:27:44;;;;;;;3.43;2.80;;;16.00;99.90;;;;;;5095110;28;20937;-58
2022/05/27 05:30:14;;;;;;;3.60;2.80;;;16.10;99.90;;;;;;5094895;28;20538;-58
2022/05/27 05:32:43;;;;;;;6.07;2.97;;;16.10;99.90;;;;;;5095249;28;20526;-57
2022/05/27 05:35:12;;;;;;;4.00;2.73;;;16.10;99.90;;;;;;5095119;28;20439;-57
2022/05/27 05:37:40;;;;;;;2.87;2.47;;;16.10;99.90;;;;;;5094879;28;20447;-57
2022/05/27 05:40:10;;;;;;;4.17;2.80;;;16.20;99.90;;;;;;5094650;28;20823;-57
2022/05/27 05:42:38;;;;;;;4.10;2.97;;;16.20;99.90;;;;;;5094996;28;20448;-57
2022/05/27 05:45:06;;;;;;;6.33;3.13;;;16.30;99.90;;;;;;5094233;28;20487;-57
2022/05/27 05:47:33;;;;;;;3.53;3.23;;;16.20;99.90;;;;;;5094666;28;20860;-57
2022/05/27 05:50:02;;;;;;;2.97;2.67;;;16.20;99.90;;;;;;5094538;28;20463;-57
2022/05/27 05:52:29;;;;;;;4.87;3.13;;;16.10;99.90;;;;;;5094625;28;20956;-58
2022/05/27 05:54:56;;;;;;;3.90;2.87;;;16.00;99.90;;;;;;5094578;28;20522;-58
2022/05/27 05:57:24;;;;;;;3.40;3.10;;;16.00;99.90;;;;;;5094630;28;20950;-58
2022/05/27 05:59:51;;;;;;;3.10;2.80;;;16.00;99.90;;;;;;5094653;28;20463;-58
2022/05/27 06:02:18;;;;;;;3.20;3.00;;;16.00;99.90;;;;;;5094575;28;20946;-58
2022/05/27 06:04:45;;;;;;;3.33;3.00;;;16.10;99.90;;;;;;5094297;28;20439;-58
2022/05/27 06:07:15;;;;;;;3.20;2.87;;;16.20;99.90;;;;;;5094466;28;20443;-58
2022/05/27 06:09:43;;;;;;;6.53;3.20;;;16.20;99.90;;;;;;5094266;28;20977;-57
2022/05/27 06:12:10;;;;;;;6.83;3.07;;;16.30;99.90;;;;;;5094825;28;20538;-58
2022/05/27 06:14:38;;;;;;;2.50;2.30;;;16.30;99.90;;;;;;5094502;28;20873;-58
2022/05/27 06:17:05;;;;;;;3.43;3.00;;;16.40;99.90;;;;;;5094388;28;20542;-58
2022/05/27 06:19:32;;;;;;;4.83;3.50;;;16.30;99.90;;;;;;5094269;28;20471;-58
2022/05/27 06:22:00;;;;;;;3.80;3.13;;;16.30;99.90;;;;;;5093801;28;20450;-58
2022/05/27 06:24:28;;;;;;;4.93;2.70;;;16.30;99.90;;;;;;5093832;28;20538;-57
2022/05/27 06:26:55;;;;;;;4.80;2.70;;;16.20;99.90;;;;;;5093671;28;20562;-57
2022/05/27 06:34:52;;;;;;;4.90;2.60;;;16.50;99.90;;;;;;5093734;28;20414;-58
2022/05/27 06:37:22;;;;;;;2.80;2.50;;;16.50;99.90;;;;;;5094011;28;20909;-58
2022/05/27 06:39:51;;;;;;;3.17;2.87;;;16.50;99.90;;;;;;5093597;28;20997;-57
2022/05/27 06:42:18;;;;;;;3.70;2.73;;;16.60;99.90;;;;;;5093990;28;20439;-57
2022/05/27 06:44:45;;;;;;;3.17;2.50;;;16.70;99.90;;;;;;5093474;28;20518;-57
2022/05/27 06:47:13;;;;;;;4.03;3.73;;;16.70;99.90;;;;;;5093890;28;20447;-57
2022/05/27 06:49:44;;;;;;;5.73;3.00;;;16.70;99.90;;;;;;5093467;28;20830;-58
2022/05/27 06:52:13;;;;;;;3.53;2.33;;;16.70;99.90;;;;;;5093808;28;20497;-58
2022/05/27 06:54:41;;;;;;;3.77;2.60;;;16.70;99.90;;;;;;5093570;28;20451;-58
2022/05/27 06:57:11;;;;;;;3.30;3.00;;;16.70;99.90;;;;;;5093429;28;20440;-58
2022/05/27 06:59:38;;;;;;;4.27;2.53;;;16.80;99.90;;;;;;5093602;28;20872;-57
2022/05/27 07:02:06;;;;;;;4.23;2.80;;;16.70;99.90;;;;;;5093796;28;20516;-57
2022/05/27 07:04:33;;;;;;;4.43;3.03;;;16.80;99.90;;;;;;5093197;28;20462;-58
2022/05/27 07:07:00;;;;;;;3.70;3.40;;;16.80;99.90;;;;;;5093550;28;20483;-57
2022/05/27 07:09:27;;;;;;;5.23;3.00;;;16.90;99.90;;;;;;5093123;28;20470;-57
2022/05/27 07:11:56;;;;;;;3.33;3.03;;;16.80;99.90;;;;;;5093382;28;20787;-57
2022/05/27 07:14:24;;;;;;;3.00;2.73;;;16.80;99.90;;;;;;5093397;28;20466;-58
2022/05/27 07:16:52;;;;;;;4.67;3.17;;;16.70;99.90;;;;;;5093503;28;20450;-58
2022/05/27 07:19:20;;;;;;;3.40;3.10;;;16.80;99.90;;;;;;5093278;28;20468;-58
2022/05/27 07:21:49;;;;;;;5.43;2.83;;;16.80;99.90;;;;;;5093452;28;20447;-57
2022/05/27 07:24:18;;;;;;;4.97;3.13;;;16.70;99.90;;;;;;5092899;28;20530;-58
2022/05/27 07:26:46;;;;;;;6.20;3.53;;;16.70;99.90;;;;;;5092963;28;20537;-58
2022/05/27 07:29:14;;;;;;;4.23;3.23;;;16.70;99.90;;;;;;5092818;28;20989;-57
2022/05/27 07:31:44;;;;;;;4.80;2.63;;;16.70;99.90;;;;;;5096308;28;20780;-58
2022/05/27 07:34:12;;;;;;;5.90;2.90;;;16.70;99.90;;;;;;5096943;28;20477;-58
2022/05/27 07:36:39;;;;;;;3.43;3.07;;;16.60;99.90;;;;;;5097495;28;20750;-57
2022/05/27 07:39:07;;;;;;;5.90;3.43;;;16.50;99.90;;;;;;5097277;28;20459;-57
2022/05/27 07:41:35;;;;;;;4.23;2.77;;;16.50;99.90;;;;;;5097282;28;20869;-57
2022/05/27 07:44:03;;;;;;;4.23;3.03;;;16.50;99.90;;;;;;5097146;28;20498;-57
2022/05/27 07:46:32;;;;;;;4.23;2.90;;;16.40;99.90;;;;;;5097234;28;20483;-57
2022/05/27 07:49:01;;;;;;;3.67;2.97;;;16.60;99.90;;;;;;5096930;28;20969;-57
2022/05/27 07:51:28;;;;;;;3.27;2.97;;;16.60;99.90;;;;;;5096963;28;20530;-57
2022/05/27 07:53:55;;;;;;;6.03;3.17;;;16.50;99.90;;;;;;5097068;28;20496;-57
2022/05/27 07:56:23;;;;;;;3.70;3.03;;;16.40;99.90;;;;;;5096753;28;20446;-57
2022/05/27 07:58:50;;;;;;;4.13;3.30;;;16.40;99.90;;;;;;5096657;28;20966;-57
2022/05/27 08:01:17;;;;;;;6.13;3.60;;;16.50;99.90;;;;;;5097048;28;20532;-57
2022/05/27 08:03:44;;;;;;;4.27;2.83;;;16.40;99.90;;;;;;5096658;28;20432;-57
2022/05/27 08:06:14;;;;;;;6.83;3.27;;;16.50;99.90;;;;;;5096903;28;20475;-57
2022/05/27 08:08:41;;;;;;;3.47;3.17;;;16.60;99.90;;;;;;5096485;28;20507;-58
2022/05/27 08:11:08;;;;;;;4.50;3.40;;;16.70;99.90;;;;;;5096639;28;21006;-58
2022/05/27 08:13:36;;;;;;;4.93;3.37;;;16.70;99.90;;;;;;5096355;28;20473;-58
2022/05/27 08:16:03;;;;;;;3.03;2.73;;;16.80;99.90;;;;;;5096424;28;20470;-57
2022/05/27 08:18:31;;;;;;;4.10;3.33;;;17.00;99.90;;;;;;5096321;28;20467;-56
2022/05/27 08:20:58;;;;;;;4.93;2.83;;;17.00;99.90;;;;;;5096313;28;21001;-57
2022/05/27 08:23:27;;;;;;;4.13;3.13;;;17.20;99.90;;;;;;5096616;28;20469;-57
2022/05/27 08:25:55;;;;;;;6.57;3.33;;;17.20;99.90;;;;;;5095906;28;20475;-57
2022/05/27 08:28:24;;;;;;;2.87;2.67;;;17.20;99.90;;;;;;5096131;28;20482;-57
2022/05/27 08:30:55;;;;;;;3.50;2.70;;;17.20;99.90;;;;;;5096037;28;20948;-57
2022/05/27 08:33:24;;;;;;;3.63;2.73;;;17.30;99.90;;;;;;5096398;28;20458;-57
2022/05/27 08:38:40;;;;;;;6.73;3.50;;;17.10;99.90;;;;;;5095999;28;20442;-57
2022/05/27 08:41:34;;;;;;;3.73;3.43;;;17.10;99.90;;;;;;5095974;28;20447;-57
2022/05/27 08:44:26;;;;;;;3.87;3.07;;;17.10;99.90;;;;;;5096109;28;20502;-57
2022/05/27 08:47:01;;;;;;;4.00;3.30;;;17.20;99.90;;;;;;5055903;28;20559;-57
2022/05/27 08:49:32;;;;;;;4.83;3.13;;;17.20;99.90;;;;;;5055475;28;20469;-57
2022/05/27 08:52:05;;;;;;;3.13;2.70;;;17.20;99.90;;;;;;5055543;28;20504;-57
2022/05/27 08:54:40;;;;;;;3.20;2.90;;;17.20;99.90;;;;;;5055725;28;20923;-57
2022/05/27 08:59:58;;;;;;;4.10;2.80;;;17.30;99.90;;;;;;5055477;28;20444;-57
2022/05/27 09:02:32;;;;;;;4.17;3.17;;;17.30;99.90;;;;;;5055284;28;20429;-57
2022/05/27 09:05:07;;;;;;;3.10;2.80;;;17.50;99.90;;;;;;5055715;28;20520;-57
2022/05/27 09:07:42;;;;;;;5.87;2.70;;;17.70;99.90;;;;;;5055448;28;20476;-57
2022/05/27 09:10:14;;;;;;;9.37;4.37;;;17.70;99.90;;;;;;5055062;28;20471;-57
2022/05/27 09:13:10;;;;;;;4.30;2.40;;;17.80;99.90;;;;;;5055096;28;20991;-57
2022/05/27 09:15:45;;;;;;;2.93;2.53;;;18.70;99.90;;;;;;5055463;28;20461;-57
2022/05/27 09:18:24;;;;;;;2.97;2.67;;;18.70;99.90;;;;;;5055241;28;20429;-57
2022/05/27 09:21:02;;;;;;;2.60;2.40;;;19.60;99.90;;;;;;5055400;28;20436;-57
2022/05/27 09:23:54;;;;;;;3.70;2.57;;;20.50;99.90;;;;;;5055324;28;20451;-57
2022/05/27 09:26:30;;;;;;;2.90;2.50;;;22.00;99.90;;;;;;5065848;28;20518;-57
2022/05/27 09:29:08;;;;;;;3.10;2.53;;;22.00;99.90;;;;;;5074630;28;20499;-57
2022/05/27 09:31:47;;;;;;;3.33;2.27;;;21.60;99.90;;;;;;5075143;28;20429;-57
2022/05/27 09:34:15;;;;;;;2.57;2.30;;;21.70;99.90;;;;;;5074668;28;20528;-57
2022/05/27 09:36:47;;;;;;;2.93;2.10;;;22.70;99.90;;;;;;5074750;28;20451;-57
2022/05/27 09:39:16;;;;;;;5.60;2.80;;;22.80;98.80;;;;;;5074833;28;20498;-58
2022/05/27 09:41:53;;;;;;;2.80;2.10;;;22.30;98.70;;;;;;5074603;28;20458;-58
2022/05/27 09:44:27;;;;;;;4.03;2.40;;;22.20;99.00;;;;;;5077939;28;20475;-57
2022/05/27 09:46:54;;;;;;;2.33;2.13;;;21.80;98.30;;;;;;5115040;28;20501;-57
2022/05/27 09:49:21;;;;;;;2.47;2.27;;;21.20;99.10;;;;;;5114958;28;20477;-57
2022/05/27 09:51:49;;;;;;;2.80;2.60;;;20.80;98.90;;;;;;5114869;28;20450;-57
2022/05/27 09:54:29;;;;;;;4.97;2.60;;;20.10;98.70;;;;;;5114770;28;20478;-57
2022/05/27 09:57:02;;;;;;;3.40;2.80;;;19.70;99.40;;;;;;5114670;28;20466;-57
2022/05/27 09:59:35;;;;;;;6.80;2.60;;;;;;;;;;5115159;28;20777;-57
2022/05/27 10:02:21;;;;;;;5.30;2.20;;;19.90;99.90;;;;;;5114727;28;20455;-57
2022/05/27 10:04:53;;;;;;;2.60;2.40;;;21.10;99.90;;;;;;5114952;28;20431;-57
2022/05/27 10:07:34;;;;;;;5.33;1.97;;;21.70;99.20;;;;;;5114624;28;20518;-58
2022/05/27 10:10:26;;;;;;;5.53;2.40;;;21.30;96.60;;;;;;5114596;28;20549;-57
2022/05/27 10:12:56;;;;;;;4.10;3.40;;;21.40;97.20;;;;;;5114663;28;20427;-57
2022/05/27 10:15:31;;;;;;;2.07;1.90;;;22.10;96.70;;;;;;5114527;28;20992;-57
2022/05/27 10:18:17;;;;;;;2.00;1.80;;;22.80;97.00;;;;;;5114448;28;20514;-58
2022/05/27 10:20:48;;;;;;;2.43;2.23;;;23.50;95.00;;;;;;5114347;28;20435;-57
2022/05/27 10:23:23;;;;;;;3.50;2.17;;;23.90;93.90;;;;;;5114295;28;20958;-57
2022/05/27 10:25:51;;;;;;;2.50;2.30;;;24.10;94.00;;;;;;5114171;28;20521;-58
2022/05/27 10:28:29;;;;;;;2.33;2.10;;;23.90;92.80;;;;;;5114562;28;20473;-58
2022/05/27 10:31:00;;;;;;;5.20;2.20;;;24.20;93.00;;;;;;5114252;28;20488;-57
2022/05/27 10:33:39;;;;;;;2.77;2.10;;;24.30;92.80;;;;;;5114100;28;20889;-58
2022/05/27 10:36:30;;;;;;;4.33;2.57;;;24.00;92.40;;;;;;5114579;28;20423;-58
2022/05/27 10:39:02;;;;;;;2.30;2.10;;;23.20;92.20;;;;;;5114357;28;20542;-58
2022/05/27 10:41:40;;;;;;;2.17;2.03;;;23.50;92.40;;;;;;5114165;28;20764;-58
2022/05/27 10:44:17;;;;;;;2.43;1.90;;;23.50;91.50;;;;;;5114473;28;20545;-57
2022/05/27 10:46:52;;;;;;;3.73;2.83;;;23.40;90.40;;;;;;5114276;28;20470;-57
2022/05/27 10:49:40;;;;;;;2.33;2.13;;;23.40;91.40;;;;;;5114106;28;20795;-58
2022/05/27 10:52:20;;;;;;;1.80;1.70;;;22.40;90.80;;;;;;5113999;28;20423;-57
2022/05/27 10:55:01;;;;;;;2.17;1.97;;;21.40;91.50;;;;;;5113707;28;20889;-58
2022/05/27 11:03:44;;;;;;;1.87;1.77;;;20.40;93.10;;;;;;5113850;28;20460;-58
2022/05/27 11:06:26;;;;;;;2.80;2.50;;;20.50;93.50;;;;;;5112907;28;20985;-57
2022/05/27 11:09:06;;;;;;;2.57;1.80;;;20.10;93.50;;;;;;5114048;28;20550;-58
2022/05/27 11:11:42;;;;;;;2.20;2.00;;;19.90;94.00;;;;;;5114050;28;20427;-57
2022/05/27 11:17:11;;;;;;;2.27;2.07;;;20.20;94.10;;;;;;5113571;28;20402;-57
2022/05/27 11:20:06;;;;;;;2.30;2.10;;;20.10;94.60;;;;;;5113873;28;20458;-56
2022/05/27 11:22:37;;;;;;;3.23;2.10;;;20.40;94.20;;;;;;5113431;28;21009;-57
2022/05/27 11:25:33;;;;;;;3.07;2.40;;;20.50;94.70;;;;;;5113195;28;21023;-57
2022/05/27 11:28:19;;;;;;;2.20;2.00;;;20.30;94.30;;;;;;5113298;28;20482;-57
2022/05/27 11:31:00;;;;;;;2.83;2.10;;;20.30;94.40;;;;;;5113789;28;20427;-57
2022/05/27 11:33:49;;;;;;;2.67;1.90;;;20.40;95.10;;;;;;5113398;28;20969;-57
2022/05/27 11:36:40;;;;;;;2.40;2.23;;;20.70;95.10;;;;;;5114048;28;20427;-57
2022/05/27 11:39:38;;;;;;;2.50;2.30;;;20.80;94.30;;;;;;5113546;28;20885;-57
2022/05/27 11:42:14;;;;;;;2.20;1.80;;;20.70;94.90;;;;;;5113715;28;20431;-57
2022/05/27 11:44:45;;;;;;;2.83;2.30;;;;;;;;;;5113410;28;20527;-57
2022/05/27 11:47:33;;;;;;;3.20;2.10;;;20.10;95.00;;;;;;5113304;28;20532;-57
2022/05/27 11:50:16;;;;;;;3.33;2.27;;;20.30;95.70;;;;;;5113439;28;20519;-57
2022/05/27 11:52:55;;;;;;;2.07;1.87;;;20.20;95.10;;;;;;5113533;28;20583;-56
2022/05/27 11:56:01;;;;;;;2.83;2.07;;;20.40;95.70;;;;;;5113063;28;20479;-57
2022/05/27 11:58:46;;;;;;;2.00;1.90;;;20.70;95.70;;;;;;5030540;28;20548;-56
2022/05/27 12:01:28;;;;;;;3.43;2.40;;;20.70;95.60;;;;;;5030670;28;20426;-57
2022/05/27 12:04:05;;;;;;;3.90;2.40;;;20.90;95.50;;;;;;5088914;28;20450;-57
2022/05/27 12:06:39;;;;;;;2.30;2.00;;;21.20;95.50;;;;;;5113050;28;20916;-57
2022/05/27 12:09:09;;;;;;;2.17;1.97;;;21.60;95.60;;;;;;5113349;28;20515;-57
2022/05/27 12:11:40;;;;;;;3.10;2.00;;;22.10;95.90;;;;;;5113297;28;20451;-57
2022/05/27 12:14:13;;;;;;;3.57;2.37;;;22.20;94.10;;;;;;5113279;28;20465;-57
2022/05/27 12:16:44;;;;;;;2.90;1.93;;;21.70;94.00;;;;;;5114825;28;20430;-56
2022/05/27 12:19:18;;;;;;;1.80;1.70;;;22.00;94.10;;;;;;5117035;28;20801;-57
2022/05/27 12:21:49;;;;;;;4.03;1.90;;;22.80;93.90;;;;;;5116683;28;20761;-58
2022/05/27 12:24:23;;;;;;;3.20;2.10;;;23.10;93.40;;;;;;5116700;28;20433;-57
2022/05/27 12:26:54;;;;;;;2.13;1.93;;;22.80;93.50;;;;;;5115256;28;20837;-57
2022/05/27 12:29:24;;;;;;;3.47;2.17;;;23.80;93.60;;;;;;5116589;28;20462;-58
2022/05/27 12:31:54;;;;;;;3.20;2.30;;;24.40;92.30;;;;;;5116869;28;20478;-58
2022/05/27 12:34:39;;;;;;;2.60;1.90;;;24.70;91.40;;;;;;5116717;28;20450;-58
2022/05/27 12:37:25;;;;;;;2.00;1.77;;;24.20;90.70;;;;;;5116868;28;20491;-57
2022/05/27 12:40:14;;;;;;;2.40;2.20;;;23.70;91.10;;;;;;5116437;28;20956;-57
2022/05/27 12:42:44;;;;;;;2.10;1.90;;;22.90;92.50;;;;;;5116265;28;21035;-57
2022/05/27 12:45:37;;;;;;;2.40;2.20;;;22.60;93.60;;;;;;5116019;28;20564;-57
2022/05/27 12:48:07;;;;;;;3.30;2.20;;;22.80;93.20;;;;;;5107838;28;20510;-57
2022/05/27 12:50:38;;;;;;;2.07;1.90;;;22.80;93.80;;;;;;5116289;28;20453;-57
2022/05/27 12:53:19;;;;;;;4.90;1.90;;;22.40;94.00;;;;;;5116379;28;20482;-57
2022/05/27 13:01:25;;;;;;;3.47;2.20;;;21.80;93.90;;;;;;5095805;28;20404;-57
2022/05/27 13:03:54;;;;;;;3.47;2.40;;;21.60;94.60;;;;;;5095575;28;20518;-57
2022/05/27 13:06:41;;;;;;;2.90;2.10;;;21.70;95.20;;;;;;5095705;28;20451;-57
2022/05/27 13:09:32;;;;;;;4.60;2.00;;;21.40;94.80;;;;;;5095253;28;20972;-57
2022/05/27 13:12:00;;;;;;;3.07;2.20;;;21.40;95.40;;;;;;5095631;28;20427;-57
2022/05/27 13:14:51;;;;;;;2.27;2.07;;;21.60;95.10;;;;;;5095507;28;20497;-57
2022/05/27 13:17:38;;;;;;;2.23;1.93;;;21.80;95.30;;;;;;5095583;28;20489;-57
2022/05/27 13:20:21;;;;;;;3.33;2.20;;;21.80;94.60;;;;;;5095445;28;20528;-57
2022/05/27 13:22:58;;;;;;;3.47;2.07;;;22.00;94.40;;;;;;5095418;28;20423;-56
2022/05/27 13:25:32;;;;;;;2.00;1.90;;;22.10;94.80;;;;;;5095036;28;20427;-57
2022/05/27 13:28:03;;;;;;;3.60;2.23;;;22.00;94.10;;;;;;5094147;28;20464;-57
2022/05/27 13:30:57;;;;;;;2.90;2.60;;;22.10;95.00;;;;;;5095069;28;20902;-57
2022/05/27 13:33:28;;;;;;;2.80;2.30;;;22.40;93.90;;;;;;5095028;28;20428;-58
2022/05/27 13:35:56;;;;;;;2.87;2.30;;;22.30;94.00;;;;;;5094953;28;20526;-58
2022/05/27 13:38:28;;;;;;;2.40;2.10;;;22.30;94.60;;;;;;5095227;28;20452;-58
2022/05/27 13:40:58;;;;;;;4.40;2.10;;;22.20;94.50;;;;;;5095116;28;20857;-57
2022/05/27 13:43:34;;;;;;;3.67;2.03;;;21.60;94.10;;;;;;5094842;28;20466;-58
2022/05/27 13:46:12;;;;;;;2.10;2.00;;;21.50;95.30;;;;;;5094570;28;20470;-58
2022/05/27 13:48:45;;;;;;;3.37;2.47;;;21.40;94.80;;;;;;5094394;28;20485;-58